sensor_id;sensor_type;location;lat;lon;timestamp;P1;durP1;ratioP1;P2;durP2;ratioP2
34643;SDS011;26931;43.498;-1.506;2022-11-30T00:00:20;17.10;;;8.90;;
34643;SDS011;26931;43.498;-1.506;2022-11-30T00:02:47;13.40;;;7.50;;
34643;SDS011;26931;43.498;-1.506;2022-11-30T00:05:19;13.93;;;9.07;;
34643;SDS011;26931;43.498;-1.506;2022-11-30T00:07:45;15.30;;;8.90;;
34643;SDS011;26931;43.498;-1.506;2022-11-30T00:10:11;16.83;;;8.75;;
34643;SDS011;26931;43.498;-1.506;2022-11-30T00:12:37;12.93;;;8.70;;
34643;SDS011;26931;43.498;-1.506;2022-11-30T00:15:07;10.75;;;7.88;;
34643;SDS011;26931;43.498;-1.506;2022-11-30T00:17:36;13.10;;;8.27;;
34643;SDS011;26931;43.498;-1.506;2022-11-30T00:20:02;15.02;;;8.10;;
34643;SDS011;26931;43.498;-1.506;2022-11-30T00:22:28;15.23;;;8.25;;
34643;SDS011;26931;43.498;-1.506;2022-11-30T00:24:54;12.05;;;8.00;;
34643;SDS011;26931;43.498;-1.506;2022-11-30T00:27:19;11.07;;;7.97;;
34643;SDS011;26931;43.498;-1.506;2022-11-30T00:29:45;12.05;;;7.35;;
34643;SDS011;26931;43.498;-1.506;2022-11-30T00:32:11;12.40;;;7.55;;
34643;SDS011;26931;43.498;-1.506;2022-11-30T00:34:37;12.77;;;7.18;;
34643;SDS011;26931;43.498;-1.506;2022-11-30T00:37:03;9.52;;;7.18;;
34643;SDS011;26931;43.498;-1.506;2022-11-30T00:39:29;14.15;;;7.55;;
34643;SDS011;26931;43.498;-1.506;2022-11-30T00:41:55;11.18;;;7.40;;
34643;SDS011;26931;43.498;-1.506;2022-11-30T00:44:21;12.10;;;7.68;;
34643;SDS011;26931;43.498;-1.506;2022-11-30T00:46:47;10.02;;;7.22;;
34643;SDS011;26931;43.498;-1.506;2022-11-30T00:49:13;12.00;;;6.88;;
34643;SDS011;26931;43.498;-1.506;2022-11-30T00:51:39;12.95;;;7.10;;
34643;SDS011;26931;43.498;-1.506;2022-11-30T00:54:05;11.70;;;6.97;;
34643;SDS011;26931;43.498;-1.506;2022-11-30T00:56:31;11.13;;;7.03;;
34643;SDS011;26931;43.498;-1.506;2022-11-30T00:58:57;12.63;;;7.15;;
34643;SDS011;26931;43.498;-1.506;2022-11-30T01:01:23;10.35;;;7.20;;
34643;SDS011;26931;43.498;-1.506;2022-11-30T01:03:49;14.63;;;7.05;;
34643;SDS011;26931;43.498;-1.506;2022-11-30T01:06:14;15.55;;;7.57;;
34643;SDS011;26931;43.498;-1.506;2022-11-30T01:08:40;10.30;;;7.57;;
34643;SDS011;26931;43.498;-1.506;2022-11-30T01:11:07;9.35;;;7.55;;
34643;SDS011;26931;43.498;-1.506;2022-11-30T01:13:39;13.98;;;7.10;;
34643;SDS011;26931;43.498;-1.506;2022-11-30T01:16:09;11.60;;;7.93;;
34643;SDS011;26931;43.498;-1.506;2022-11-30T01:18:40;10.40;;;7.38;;
34643;SDS011;26931;43.498;-1.506;2022-11-30T01:21:07;12.60;;;7.38;;
34643;SDS011;26931;43.498;-1.506;2022-11-30T01:23:37;17.05;;;8.98;;
34643;SDS011;26931;43.498;-1.506;2022-11-30T01:26:03;13.57;;;7.70;;
34643;SDS011;26931;43.498;-1.506;2022-11-30T01:28:29;11.63;;;7.07;;
34643;SDS011;26931;43.498;-1.506;2022-11-30T01:30:59;10.23;;;6.38;;
34643;SDS011;26931;43.498;-1.506;2022-11-30T01:35:59;11.05;;;7.20;;
34643;SDS011;26931;43.498;-1.506;2022-11-30T01:38:33;11.70;;;7.53;;
34643;SDS011;26931;43.498;-1.506;2022-11-30T01:41:02;10.20;;;7.00;;
34643;SDS011;26931;43.498;-1.506;2022-11-30T01:43:36;10.77;;;7.03;;
34643;SDS011;26931;43.498;-1.506;2022-11-30T01:49:12;11.10;;;7.75;;
34643;SDS011;26931;43.498;-1.506;2022-11-30T01:54:09;9.52;;;7.72;;
34643;SDS011;26931;43.498;-1.506;2022-11-30T01:56:39;9.65;;;7.30;;
34643;SDS011;26931;43.498;-1.506;2022-11-30T01:59:09;12.70;;;8.18;;
34643;SDS011;26931;43.498;-1.506;2022-11-30T02:01:36;10.95;;;6.95;;
34643;SDS011;26931;43.498;-1.506;2022-11-30T02:04:12;10.75;;;7.40;;
34643;SDS011;26931;43.498;-1.506;2022-11-30T02:06:44;9.13;;;7.45;;
34643;SDS011;26931;43.498;-1.506;2022-11-30T02:09:11;14.00;;;8.23;;
34643;SDS011;26931;43.498;-1.506;2022-11-30T02:11:39;9.35;;;7.10;;
34643;SDS011;26931;43.498;-1.506;2022-11-30T02:20:13;8.98;;;6.43;;
34643;SDS011;26931;43.498;-1.506;2022-11-30T02:23:02;8.18;;;6.70;;
34643;SDS011;26931;43.498;-1.506;2022-11-30T02:28:11;9.15;;;6.60;;
34643;SDS011;26931;43.498;-1.506;2022-11-30T02:31:02;10.77;;;6.35;;
34643;SDS011;26931;43.498;-1.506;2022-11-30T02:33:32;9.18;;;6.63;;
34643;SDS011;26931;43.498;-1.506;2022-11-30T02:36:03;7.55;;;6.30;;
34643;SDS011;26931;43.498;-1.506;2022-11-30T02:38:30;7.90;;;6.00;;
34643;SDS011;26931;43.498;-1.506;2022-11-30T02:40:57;6.30;;;5.70;;
34643;SDS011;26931;43.498;-1.506;2022-11-30T02:43:27;7.32;;;5.70;;
34643;SDS011;26931;43.498;-1.506;2022-11-30T02:48:45;7.85;;;5.88;;
34643;SDS011;26931;43.498;-1.506;2022-11-30T02:51:21;7.50;;;6.07;;
34643;SDS011;26931;43.498;-1.506;2022-11-30T02:53:50;6.57;;;5.28;;
34643;SDS011;26931;43.498;-1.506;2022-11-30T02:56:16;9.05;;;6.25;;
34643;SDS011;26931;43.498;-1.506;2022-11-30T02:58:44;6.72;;;5.60;;
34643;SDS011;26931;43.498;-1.506;2022-11-30T03:01:11;8.77;;;5.70;;
34643;SDS011;26931;43.498;-1.506;2022-11-30T03:03:37;7.82;;;5.63;;
34643;SDS011;26931;43.498;-1.506;2022-11-30T03:06:03;8.25;;;5.35;;
34643;SDS011;26931;43.498;-1.506;2022-11-30T03:08:33;6.20;;;5.20;;
34643;SDS011;26931;43.498;-1.506;2022-11-30T03:11:02;5.20;;;4.70;;
34643;SDS011;26931;43.498;-1.506;2022-11-30T03:13:32;8.32;;;5.07;;
34643;SDS011;26931;43.498;-1.506;2022-11-30T03:16:08;6.88;;;5.00;;
34643;SDS011;26931;43.498;-1.506;2022-11-30T03:18:34;6.07;;;4.97;;
34643;SDS011;26931;43.498;-1.506;2022-11-30T03:21:08;7.65;;;5.18;;
34643;SDS011;26931;43.498;-1.506;2022-11-30T03:23:38;5.35;;;4.85;;
34643;SDS011;26931;43.498;-1.506;2022-11-30T03:26:05;4.97;;;4.45;;
34643;SDS011;26931;43.498;-1.506;2022-11-30T03:28:32;5.32;;;4.30;;
34643;SDS011;26931;43.498;-1.506;2022-11-30T03:30:59;6.90;;;4.85;;
34643;SDS011;26931;43.498;-1.506;2022-11-30T03:33:25;4.85;;;4.18;;
34643;SDS011;26931;43.498;-1.506;2022-11-30T03:36:00;5.00;;;4.50;;
34643;SDS011;26931;43.498;-1.506;2022-11-30T03:38:28;5.70;;;4.70;;
34643;SDS011;26931;43.498;-1.506;2022-11-30T03:41:00;5.10;;;4.63;;
34643;SDS011;26931;43.498;-1.506;2022-11-30T03:43:34;5.07;;;4.47;;
34643;SDS011;26931;43.498;-1.506;2022-11-30T03:46:04;6.53;;;4.88;;
34643;SDS011;26931;43.498;-1.506;2022-11-30T03:48:31;5.35;;;4.60;;
34643;SDS011;26931;43.498;-1.506;2022-11-30T03:51:00;5.53;;;4.32;;
34643;SDS011;26931;43.498;-1.506;2022-11-30T03:53:26;4.47;;;3.95;;
34643;SDS011;26931;43.498;-1.506;2022-11-30T03:55:53;5.07;;;4.13;;
34643;SDS011;26931;43.498;-1.506;2022-11-30T03:58:21;6.57;;;4.43;;
34643;SDS011;26931;43.498;-1.506;2022-11-30T04:00:48;4.50;;;3.83;;
34643;SDS011;26931;43.498;-1.506;2022-11-30T04:03:17;5.97;;;4.40;;
34643;SDS011;26931;43.498;-1.506;2022-11-30T04:05:46;5.93;;;4.60;;
34643;SDS011;26931;43.498;-1.506;2022-11-30T04:08:18;6.90;;;3.90;;
34643;SDS011;26931;43.498;-1.506;2022-11-30T04:10:51;6.15;;;4.10;;
34643;SDS011;26931;43.498;-1.506;2022-11-30T04:13:22;4.68;;;4.22;;
34643;SDS011;26931;43.498;-1.506;2022-11-30T04:15:49;4.10;;;3.70;;
34643;SDS011;26931;43.498;-1.506;2022-11-30T04:18:16;4.20;;;3.47;;
34643;SDS011;26931;43.498;-1.506;2022-11-30T04:20:43;5.72;;;3.17;;
34643;SDS011;26931;43.498;-1.506;2022-11-30T04:23:12;4.47;;;3.58;;
34643;SDS011;26931;43.498;-1.506;2022-11-30T04:25:43;3.72;;;3.42;;
34643;SDS011;26931;43.498;-1.506;2022-11-30T04:28:13;4.40;;;3.40;;
34643;SDS011;26931;43.498;-1.506;2022-11-30T04:30:43;3.28;;;2.97;;
34643;SDS011;26931;43.498;-1.506;2022-11-30T04:33:13;3.75;;;3.35;;
34643;SDS011;26931;43.498;-1.506;2022-11-30T04:35:49;4.25;;;3.85;;
34643;SDS011;26931;43.498;-1.506;2022-11-30T04:38:19;4.07;;;3.72;;
34643;SDS011;26931;43.498;-1.506;2022-11-30T04:40:46;4.53;;;3.47;;
34643;SDS011;26931;43.498;-1.506;2022-11-30T04:43:15;8.43;;;4.25;;
34643;SDS011;26931;43.498;-1.506;2022-11-30T04:45:41;4.15;;;3.60;;
34643;SDS011;26931;43.498;-1.506;2022-11-30T04:48:11;4.30;;;3.90;;
34643;SDS011;26931;43.498;-1.506;2022-11-30T04:50:52;4.40;;;3.92;;
34643;SDS011;26931;43.498;-1.506;2022-11-30T04:53:24;4.97;;;4.05;;
34643;SDS011;26931;43.498;-1.506;2022-11-30T04:55:55;4.30;;;3.90;;
34643;SDS011;26931;43.498;-1.506;2022-11-30T04:58:27;3.95;;;3.55;;
34643;SDS011;26931;43.498;-1.506;2022-11-30T05:00:59;4.40;;;3.90;;
34643;SDS011;26931;43.498;-1.506;2022-11-30T05:03:31;5.20;;;4.70;;
34643;SDS011;26931;43.498;-1.506;2022-11-30T05:06:03;5.03;;;4.53;;
34643;SDS011;26931;43.498;-1.506;2022-11-30T05:08:35;5.22;;;4.68;;
34643;SDS011;26931;43.498;-1.506;2022-11-30T05:11:08;5.75;;;5.15;;
34643;SDS011;26931;43.498;-1.506;2022-11-30T05:13:37;5.10;;;4.60;;
34643;SDS011;26931;43.498;-1.506;2022-11-30T05:16:03;8.15;;;4.70;;
34643;SDS011;26931;43.498;-1.506;2022-11-30T05:18:35;6.60;;;4.35;;
34643;SDS011;26931;43.498;-1.506;2022-11-30T05:21:01;5.20;;;4.63;;
34643;SDS011;26931;43.498;-1.506;2022-11-30T05:23:27;5.60;;;4.95;;
34643;SDS011;26931;43.498;-1.506;2022-11-30T05:25:53;4.95;;;4.50;;
34643;SDS011;26931;43.498;-1.506;2022-11-30T05:28:25;6.38;;;4.50;;
34643;SDS011;26931;43.498;-1.506;2022-11-30T05:30:51;7.80;;;4.80;;
34643;SDS011;26931;43.498;-1.506;2022-11-30T05:33:17;5.68;;;4.82;;
34643;SDS011;26931;43.498;-1.506;2022-11-30T05:35:43;6.07;;;5.43;;
34643;SDS011;26931;43.498;-1.506;2022-11-30T05:38:08;5.55;;;4.85;;
34643;SDS011;26931;43.498;-1.506;2022-11-30T05:40:34;5.10;;;4.60;;
34643;SDS011;26931;43.498;-1.506;2022-11-30T05:43:04;8.52;;;5.70;;
34643;SDS011;26931;43.498;-1.506;2022-11-30T05:45:33;6.10;;;4.82;;
34643;SDS011;26931;43.498;-1.506;2022-11-30T05:47:59;5.82;;;5.13;;
34643;SDS011;26931;43.498;-1.506;2022-11-30T05:50:28;7.50;;;6.35;;
34643;SDS011;26931;43.498;-1.506;2022-11-30T05:52:54;6.68;;;5.20;;
34643;SDS011;26931;43.498;-1.506;2022-11-30T05:55:20;6.35;;;5.00;;
34643;SDS011;26931;43.498;-1.506;2022-11-30T05:57:49;6.82;;;5.80;;
34643;SDS011;26931;43.498;-1.506;2022-11-30T06:00:15;6.40;;;5.38;;
34643;SDS011;26931;43.498;-1.506;2022-11-30T06:02:41;6.80;;;5.38;;
34643;SDS011;26931;43.498;-1.506;2022-11-30T06:05:07;7.30;;;5.97;;
34643;SDS011;26931;43.498;-1.506;2022-11-30T06:07:33;8.82;;;5.65;;
34643;SDS011;26931;43.498;-1.506;2022-11-30T06:10:03;8.70;;;5.70;;
34643;SDS011;26931;43.498;-1.506;2022-11-30T06:12:32;7.35;;;5.35;;
34643;SDS011;26931;43.498;-1.506;2022-11-30T06:15:02;7.47;;;5.68;;
34643;SDS011;26931;43.498;-1.506;2022-11-30T06:17:34;10.07;;;7.10;;
34643;SDS011;26931;43.498;-1.506;2022-11-30T06:20:06;7.38;;;6.57;;
34643;SDS011;26931;43.498;-1.506;2022-11-30T06:22:33;12.48;;;7.13;;
34643;SDS011;26931;43.498;-1.506;2022-11-30T06:25:02;11.07;;;7.50;;
34643;SDS011;26931;43.498;-1.506;2022-11-30T06:27:34;9.55;;;7.82;;
34643;SDS011;26931;43.498;-1.506;2022-11-30T06:30:06;10.55;;;8.45;;
34643;SDS011;26931;43.498;-1.506;2022-11-30T06:32:33;11.68;;;7.40;;
34643;SDS011;26931;43.498;-1.506;2022-11-30T06:35:02;10.65;;;7.90;;
34643;SDS011;26931;43.498;-1.506;2022-11-30T06:37:28;12.40;;;7.68;;
34643;SDS011;26931;43.498;-1.506;2022-11-30T06:40:02;10.70;;;7.68;;
34643;SDS011;26931;43.498;-1.506;2022-11-30T06:42:32;12.38;;;8.00;;
34643;SDS011;26931;43.498;-1.506;2022-11-30T06:45:02;13.27;;;8.10;;
34643;SDS011;26931;43.498;-1.506;2022-11-30T06:47:30;13.27;;;8.40;;
34643;SDS011;26931;43.498;-1.506;2022-11-30T06:50:01;10.48;;;8.00;;
34643;SDS011;26931;43.498;-1.506;2022-11-30T06:52:29;13.52;;;9.02;;
34643;SDS011;26931;43.498;-1.506;2022-11-30T06:54:59;12.95;;;9.60;;
34643;SDS011;26931;43.498;-1.506;2022-11-30T06:57:27;12.23;;;9.50;;
34643;SDS011;26931;43.498;-1.506;2022-11-30T06:59:56;14.52;;;9.48;;
34643;SDS011;26931;43.498;-1.506;2022-11-30T07:02:23;12.40;;;9.80;;
34643;SDS011;26931;43.498;-1.506;2022-11-30T07:04:52;14.48;;;9.27;;
34643;SDS011;26931;43.498;-1.506;2022-11-30T07:07:21;15.68;;;9.88;;
34643;SDS011;26931;43.498;-1.506;2022-11-30T07:09:50;12.38;;;9.25;;
34643;SDS011;26931;43.498;-1.506;2022-11-30T07:12:16;14.60;;;9.65;;
34643;SDS011;26931;43.498;-1.506;2022-11-30T07:14:46;11.57;;;8.93;;
34643;SDS011;26931;43.498;-1.506;2022-11-30T07:17:13;12.05;;;9.10;;
34643;SDS011;26931;43.498;-1.506;2022-11-30T07:19:42;13.75;;;10.07;;
34643;SDS011;26931;43.498;-1.506;2022-11-30T07:22:12;13.02;;;9.20;;
34643;SDS011;26931;43.498;-1.506;2022-11-30T07:24:41;14.10;;;9.95;;
34643;SDS011;26931;43.498;-1.506;2022-11-30T07:27:25;13.13;;;9.38;;
34643;SDS011;26931;43.498;-1.506;2022-11-30T07:29:51;14.95;;;9.73;;
34643;SDS011;26931;43.498;-1.506;2022-11-30T07:32:17;14.82;;;10.25;;
34643;SDS011;26931;43.498;-1.506;2022-11-30T07:34:43;15.00;;;10.38;;
34643;SDS011;26931;43.498;-1.506;2022-11-30T07:37:12;16.98;;;11.15;;
34643;SDS011;26931;43.498;-1.506;2022-11-30T07:39:39;15.82;;;11.52;;
34643;SDS011;26931;43.498;-1.506;2022-11-30T07:42:08;15.18;;;10.90;;
34643;SDS011;26931;43.498;-1.506;2022-11-30T07:44:34;17.77;;;11.80;;
34643;SDS011;26931;43.498;-1.506;2022-11-30T07:47:00;16.48;;;11.98;;
34643;SDS011;26931;43.498;-1.506;2022-11-30T07:49:26;15.02;;;11.77;;
34643;SDS011;26931;43.498;-1.506;2022-11-30T07:51:55;15.23;;;10.65;;
34643;SDS011;26931;43.498;-1.506;2022-11-30T07:54:26;14.70;;;11.38;;
34643;SDS011;26931;43.498;-1.506;2022-11-30T07:56:56;14.20;;;10.52;;
34643;SDS011;26931;43.498;-1.506;2022-11-30T07:59:25;15.38;;;11.85;;
34643;SDS011;26931;43.498;-1.506;2022-11-30T08:01:54;18.27;;;12.85;;
34643;SDS011;26931;43.498;-1.506;2022-11-30T08:04:21;18.67;;;12.18;;
34643;SDS011;26931;43.498;-1.506;2022-11-30T08:06:51;14.73;;;10.68;;
34643;SDS011;26931;43.498;-1.506;2022-11-30T08:09:18;16.05;;;11.18;;
34643;SDS011;26931;43.498;-1.506;2022-11-30T08:11:45;19.25;;;11.77;;
34643;SDS011;26931;43.498;-1.506;2022-11-30T08:14:12;16.83;;;11.45;;
34643;SDS011;26931;43.498;-1.506;2022-11-30T08:16:39;19.77;;;12.55;;
34643;SDS011;26931;43.498;-1.506;2022-11-30T08:19:07;19.08;;;12.15;;
34643;SDS011;26931;43.498;-1.506;2022-11-30T08:21:33;20.42;;;12.20;;
34643;SDS011;26931;43.498;-1.506;2022-11-30T08:23:59;18.30;;;12.35;;
34643;SDS011;26931;43.498;-1.506;2022-11-30T08:26:29;17.98;;;12.77;;
34643;SDS011;26931;43.498;-1.506;2022-11-30T08:28:57;20.20;;;13.15;;
34643;SDS011;26931;43.498;-1.506;2022-11-30T08:31:29;18.90;;;13.15;;
34643;SDS011;26931;43.498;-1.506;2022-11-30T08:34:04;19.10;;;13.43;;
34643;SDS011;26931;43.498;-1.506;2022-11-30T08:36:32;21.48;;;13.98;;
34643;SDS011;26931;43.498;-1.506;2022-11-30T08:39:02;20.35;;;12.75;;
34643;SDS011;26931;43.498;-1.506;2022-11-30T08:44:05;19.67;;;13.07;;
34643;SDS011;26931;43.498;-1.506;2022-11-30T08:46:37;19.67;;;11.63;;
34643;SDS011;26931;43.498;-1.506;2022-11-30T08:49:06;17.27;;;11.85;;
34643;SDS011;26931;43.498;-1.506;2022-11-30T08:51:31;22.75;;;14.15;;
34643;SDS011;26931;43.498;-1.506;2022-11-30T08:53:57;20.27;;;12.77;;
34643;SDS011;26931;43.498;-1.506;2022-11-30T08:56:23;18.50;;;12.35;;
34643;SDS011;26931;43.498;-1.506;2022-11-30T08:58:49;17.40;;;11.95;;
34643;SDS011;26931;43.498;-1.506;2022-11-30T09:01:18;18.30;;;12.77;;
34643;SDS011;26931;43.498;-1.506;2022-11-30T09:03:46;19.05;;;12.75;;
34643;SDS011;26931;43.498;-1.506;2022-11-30T09:06:20;22.55;;;12.05;;
34643;SDS011;26931;43.498;-1.506;2022-11-30T09:08:48;18.02;;;11.45;;
34643;SDS011;26931;43.498;-1.506;2022-11-30T09:11:29;16.98;;;11.70;;
34643;SDS011;26931;43.498;-1.506;2022-11-30T09:13:57;26.98;;;13.27;;
34643;SDS011;26931;43.498;-1.506;2022-11-30T09:16:28;19.77;;;13.18;;
34643;SDS011;26931;43.498;-1.506;2022-11-30T09:18:58;23.42;;;13.40;;
34643;SDS011;26931;43.498;-1.506;2022-11-30T09:21:27;20.00;;;13.77;;
34643;SDS011;26931;43.498;-1.506;2022-11-30T09:23:56;22.73;;;13.50;;
34643;SDS011;26931;43.498;-1.506;2022-11-30T09:26:28;22.55;;;14.13;;
34643;SDS011;26931;43.498;-1.506;2022-11-30T09:28:57;18.45;;;12.48;;
34643;SDS011;26931;43.498;-1.506;2022-11-30T09:31:29;21.77;;;13.95;;
34643;SDS011;26931;43.498;-1.506;2022-11-30T09:34:03;23.70;;;13.65;;
34643;SDS011;26931;43.498;-1.506;2022-11-30T09:36:32;29.50;;;15.15;;
34643;SDS011;26931;43.498;-1.506;2022-11-30T09:39:07;29.05;;;15.15;;
34643;SDS011;26931;43.498;-1.506;2022-11-30T09:47:00;20.42;;;13.38;;
34643;SDS011;26931;43.498;-1.506;2022-11-30T09:49:45;21.45;;;13.65;;
34643;SDS011;26931;43.498;-1.506;2022-11-30T09:52:35;23.00;;;13.20;;
34643;SDS011;26931;43.498;-1.506;2022-11-30T09:55:08;22.20;;;12.98;;
34643;SDS011;26931;43.498;-1.506;2022-11-30T10:01:01;21.58;;;13.90;;
34643;SDS011;26931;43.498;-1.506;2022-11-30T10:03:34;21.70;;;13.63;;
34643;SDS011;26931;43.498;-1.506;2022-11-30T10:06:07;19.92;;;12.95;;
34643;SDS011;26931;43.498;-1.506;2022-11-30T10:11:33;19.38;;;12.80;;
34643;SDS011;26931;43.498;-1.506;2022-11-30T10:17:00;17.48;;;12.10;;
34643;SDS011;26931;43.498;-1.506;2022-11-30T10:22:25;22.30;;;13.20;;
34643;SDS011;26931;43.498;-1.506;2022-11-30T10:25:15;20.27;;;13.27;;
34643;SDS011;26931;43.498;-1.506;2022-11-30T10:30:25;21.15;;;12.85;;
34643;SDS011;26931;43.498;-1.506;2022-11-30T10:32:58;20.17;;;12.23;;
34643;SDS011;26931;43.498;-1.506;2022-11-30T10:35:50;20.23;;;12.87;;
34643;SDS011;26931;43.498;-1.506;2022-11-30T10:38:26;15.73;;;11.00;;
34643;SDS011;26931;43.498;-1.506;2022-11-30T10:46:46;18.83;;;9.68;;
34643;SDS011;26931;43.498;-1.506;2022-11-30T10:49:22;13.30;;;8.88;;
34643;SDS011;26931;43.498;-1.506;2022-11-30T10:51:52;15.30;;;8.63;;
34643;SDS011;26931;43.498;-1.506;2022-11-30T10:54:23;14.55;;;9.52;;
34643;SDS011;26931;43.498;-1.506;2022-11-30T10:56:49;13.80;;;10.02;;
34643;SDS011;26931;43.498;-1.506;2022-11-30T10:59:18;14.63;;;9.43;;
34643;SDS011;26931;43.498;-1.506;2022-11-30T11:01:52;17.15;;;11.68;;
34643;SDS011;26931;43.498;-1.506;2022-11-30T11:04:24;17.23;;;10.85;;
34643;SDS011;26931;43.498;-1.506;2022-11-30T11:06:57;18.45;;;11.05;;
34643;SDS011;26931;43.498;-1.506;2022-11-30T11:09:38;15.15;;;10.70;;
34643;SDS011;26931;43.498;-1.506;2022-11-30T11:12:14;17.25;;;10.93;;
34643;SDS011;26931;43.498;-1.506;2022-11-30T11:15:15;15.93;;;10.32;;
34643;SDS011;26931;43.498;-1.506;2022-11-30T11:17:51;14.52;;;10.00;;
34643;SDS011;26931;43.498;-1.506;2022-11-30T11:20:26;14.10;;;9.88;;
34643;SDS011;26931;43.498;-1.506;2022-11-30T11:22:56;10.13;;;8.52;;
34643;SDS011;26931;43.498;-1.506;2022-11-30T11:25:35;11.05;;;7.80;;
34643;SDS011;26931;43.498;-1.506;2022-11-30T11:28:03;13.98;;;8.73;;
34643;SDS011;26931;43.498;-1.506;2022-11-30T11:30:30;10.85;;;8.00;;
34643;SDS011;26931;43.498;-1.506;2022-11-30T11:33:01;12.95;;;7.72;;
34643;SDS011;26931;43.498;-1.506;2022-11-30T11:41:01;9.77;;;6.60;;
34643;SDS011;26931;43.498;-1.506;2022-11-30T11:43:30;13.15;;;7.57;;
34643;SDS011;26931;43.498;-1.506;2022-11-30T11:45:59;9.43;;;7.13;;
34643;SDS011;26931;43.498;-1.506;2022-11-30T11:48:40;9.32;;;6.22;;
34643;SDS011;26931;43.498;-1.506;2022-11-30T11:51:32;8.07;;;6.75;;
34643;SDS011;26931;43.498;-1.506;2022-11-30T11:54:05;11.40;;;6.97;;
34643;SDS011;26931;43.498;-1.506;2022-11-30T11:56:53;8.07;;;6.43;;
34643;SDS011;26931;43.498;-1.506;2022-11-30T11:59:26;9.30;;;6.13;;
34643;SDS011;26931;43.498;-1.506;2022-11-30T12:04:45;9.93;;;6.85;;
34643;SDS011;26931;43.498;-1.506;2022-11-30T12:07:28;11.70;;;6.68;;
34643;SDS011;26931;43.498;-1.506;2022-11-30T12:12:44;8.77;;;5.85;;
34643;SDS011;26931;43.498;-1.506;2022-11-30T12:15:11;8.68;;;6.07;;
34643;SDS011;26931;43.498;-1.506;2022-11-30T12:17:54;7.80;;;5.75;;
34643;SDS011;26931;43.498;-1.506;2022-11-30T12:20:55;10.43;;;5.88;;
34643;SDS011;26931;43.498;-1.506;2022-11-30T12:23:30;8.90;;;5.85;;
34643;SDS011;26931;43.498;-1.506;2022-11-30T12:26:23;9.43;;;6.18;;
34643;SDS011;26931;43.498;-1.506;2022-11-30T12:29:06;8.48;;;5.63;;
34643;SDS011;26931;43.498;-1.506;2022-11-30T12:31:55;9.38;;;5.90;;
34643;SDS011;26931;43.498;-1.506;2022-11-30T12:34:33;8.07;;;5.75;;
34643;SDS011;26931;43.498;-1.506;2022-11-30T12:40:42;8.55;;;5.53;;
34643;SDS011;26931;43.498;-1.506;2022-11-30T12:49:04;9.40;;;5.65;;
34643;SDS011;26931;43.498;-1.506;2022-11-30T12:51:56;9.68;;;4.60;;
34643;SDS011;26931;43.498;-1.506;2022-11-30T12:57:34;9.50;;;5.30;;
34643;SDS011;26931;43.498;-1.506;2022-11-30T13:00:16;11.30;;;5.32;;
34643;SDS011;26931;43.498;-1.506;2022-11-30T13:05:34;7.63;;;4.03;;
34643;SDS011;26931;43.498;-1.506;2022-11-30T13:08:23;7.78;;;4.93;;
34643;SDS011;26931;43.498;-1.506;2022-11-30T13:11:04;6.03;;;4.40;;
34643;SDS011;26931;43.498;-1.506;2022-11-30T13:13:33;7.97;;;4.25;;
34643;SDS011;26931;43.498;-1.506;2022-11-30T13:16:02;9.40;;;4.78;;
34643;SDS011;26931;43.498;-1.506;2022-11-30T13:18:32;7.93;;;4.70;;
34643;SDS011;26931;43.498;-1.506;2022-11-30T13:21:16;9.23;;;4.35;;
34643;SDS011;26931;43.498;-1.506;2022-11-30T13:24:01;8.15;;;4.90;;
34643;SDS011;26931;43.498;-1.506;2022-11-30T13:26:54;8.95;;;5.18;;
34643;SDS011;26931;43.498;-1.506;2022-11-30T13:29:43;11.07;;;5.53;;
34643;SDS011;26931;43.498;-1.506;2022-11-30T13:32:24;11.93;;;4.47;;
34643;SDS011;26931;43.498;-1.506;2022-11-30T13:34:50;7.47;;;4.70;;
34643;SDS011;26931;43.498;-1.506;2022-11-30T13:37:17;5.28;;;4.05;;
34643;SDS011;26931;43.498;-1.506;2022-11-30T13:39:46;5.63;;;4.60;;
34643;SDS011;26931;43.498;-1.506;2022-11-30T13:45:44;6.85;;;4.68;;
34643;SDS011;26931;43.498;-1.506;2022-11-30T13:47:59;7.55;;;5.20;;
34643;SDS011;26931;43.498;-1.506;2022-11-30T13:50:45;7.53;;;4.85;;
34643;SDS011;26931;43.498;-1.506;2022-11-30T13:55:57;6.97;;;4.75;;
34643;SDS011;26931;43.498;-1.506;2022-11-30T13:58:25;6.68;;;4.60;;
34643;SDS011;26931;43.498;-1.506;2022-11-30T14:06:48;11.10;;;4.78;;
34643;SDS011;26931;43.498;-1.506;2022-11-30T14:09:18;7.03;;;4.65;;
34643;SDS011;26931;43.498;-1.506;2022-11-30T14:14:56;7.88;;;4.32;;
34643;SDS011;26931;43.498;-1.506;2022-11-30T14:17:25;5.45;;;4.22;;
34643;SDS011;26931;43.498;-1.506;2022-11-30T14:20:13;6.75;;;4.10;;
34643;SDS011;26931;43.498;-1.506;2022-11-30T14:22:41;6.80;;;3.80;;
34643;SDS011;26931;43.498;-1.506;2022-11-30T14:25:11;8.07;;;3.90;;
34643;SDS011;26931;43.498;-1.506;2022-11-30T14:27:40;8.98;;;3.85;;
34643;SDS011;26931;43.498;-1.506;2022-11-30T14:30:18;8.13;;;3.67;;
34643;SDS011;26931;43.498;-1.506;2022-11-30T14:32:48;7.05;;;3.88;;
34643;SDS011;26931;43.498;-1.506;2022-11-30T14:35:21;7.18;;;3.83;;
34643;SDS011;26931;43.498;-1.506;2022-11-30T14:37:57;8.05;;;3.70;;
34643;SDS011;26931;43.498;-1.506;2022-11-30T14:40:27;6.78;;;3.72;;
34643;SDS011;26931;43.498;-1.506;2022-11-30T14:42:56;3.90;;;3.33;;
34643;SDS011;26931;43.498;-1.506;2022-11-30T14:45:26;5.38;;;3.13;;
34643;SDS011;26931;43.498;-1.506;2022-11-30T14:48:08;6.05;;;3.50;;
34643;SDS011;26931;43.498;-1.506;2022-11-30T14:51:00;5.47;;;3.53;;
34643;SDS011;26931;43.498;-1.506;2022-11-30T14:53:48;7.55;;;3.70;;
34643;SDS011;26931;43.498;-1.506;2022-11-30T14:59:02;8.20;;;3.03;;
34643;SDS011;26931;43.498;-1.506;2022-11-30T15:01:56;7.05;;;2.97;;
34643;SDS011;26931;43.498;-1.506;2022-11-30T15:04:27;7.75;;;2.80;;
34643;SDS011;26931;43.498;-1.506;2022-11-30T15:06:55;5.45;;;2.80;;
34643;SDS011;26931;43.498;-1.506;2022-11-30T15:09:26;7.53;;;2.70;;
34643;SDS011;26931;43.498;-1.506;2022-11-30T15:11:55;5.47;;;3.10;;
34643;SDS011;26931;43.498;-1.506;2022-11-30T15:14:22;5.75;;;2.70;;
34643;SDS011;26931;43.498;-1.506;2022-11-30T15:16:50;6.93;;;2.75;;
34643;SDS011;26931;43.498;-1.506;2022-11-30T15:19:22;9.52;;;2.78;;
34643;SDS011;26931;43.498;-1.506;2022-11-30T15:21:53;6.47;;;2.97;;
34643;SDS011;26931;43.498;-1.506;2022-11-30T15:24:20;6.07;;;2.78;;
34643;SDS011;26931;43.498;-1.506;2022-11-30T15:26:54;6.60;;;2.85;;
34643;SDS011;26931;43.498;-1.506;2022-11-30T15:31:58;9.15;;;2.88;;
34643;SDS011;26931;43.498;-1.506;2022-11-30T15:34:35;8.27;;;2.83;;
34643;SDS011;26931;43.498;-1.506;2022-11-30T15:37:06;9.60;;;3.03;;
34643;SDS011;26931;43.498;-1.506;2022-11-30T15:39:32;9.50;;;3.47;;
34643;SDS011;26931;43.498;-1.506;2022-11-30T15:41:59;6.53;;;3.05;;
34643;SDS011;26931;43.498;-1.506;2022-11-30T15:47:04;4.47;;;2.72;;
34643;SDS011;26931;43.498;-1.506;2022-11-30T15:49:32;7.90;;;3.30;;
34643;SDS011;26931;43.498;-1.506;2022-11-30T15:52:01;8.85;;;3.78;;
34643;SDS011;26931;43.498;-1.506;2022-11-30T15:57:24;11.10;;;4.15;;
34643;SDS011;26931;43.498;-1.506;2022-11-30T16:00:03;9.13;;;4.07;;
34643;SDS011;26931;43.498;-1.506;2022-11-30T16:02:33;10.98;;;3.38;;
34643;SDS011;26931;43.498;-1.506;2022-11-30T16:07:38;7.63;;;3.78;;
34643;SDS011;26931;43.498;-1.506;2022-11-30T16:10:33;12.38;;;3.88;;
34643;SDS011;26931;43.498;-1.506;2022-11-30T16:13:02;10.15;;;4.60;;
34643;SDS011;26931;43.498;-1.506;2022-11-30T16:15:31;8.70;;;4.10;;
34643;SDS011;26931;43.498;-1.506;2022-11-30T16:18:09;7.45;;;3.33;;
34643;SDS011;26931;43.498;-1.506;2022-11-30T16:20:39;6.95;;;3.53;;
34643;SDS011;26931;43.498;-1.506;2022-11-30T16:23:12;4.82;;;3.42;;
34643;SDS011;26931;43.498;-1.506;2022-11-30T16:25:45;8.55;;;3.83;;
34643;SDS011;26931;43.498;-1.506;2022-11-30T16:28:13;7.38;;;3.80;;
34643;SDS011;26931;43.498;-1.506;2022-11-30T16:30:42;11.48;;;3.80;;